Time;durP1;ratioP1;P1;durP2;ratioP2;P2;SDS_P1;SDS_P2;PMS_P1;PMS_P2;Temp;Humidity;BMP_temperature;BMP_pressure;BME280_temperature;BME280_humidity;BME280_pressure;Samples;Min_cycle;Max_cycle;Signal;HPM_P1;HPM_P2
2022/01/07 00:03:53;;;;;;;33.20;17.58;;;;;;;-0.49;100.00;100858.91;20965036;28;20104;-84
2022/01/07 00:13:54;;;;;;;35.88;18.33;;;;;;;-0.53;100.00;100844.19;20962448;28;20083;-83
2022/01/07 00:23:56;;;;;;;44.20;19.33;;;;;;;-0.60;100.00;100844.81;20983087;28;20056;-84
2022/01/07 00:33:57;;;;;;;44.53;22.70;;;;;;;-0.62;100.00;100836.16;21000127;28;20049;-84
2022/01/07 00:43:59;;;;;;;34.05;16.27;;;;;;;-0.66;100.00;100822.31;20991071;28;20048;-84
2022/01/07 00:54:01;;;;;;;39.13;17.60;;;;;;;-0.69;100.00;100816.19;20944398;28;20072;-84
2022/01/07 01:04:03;;;;;;;31.80;14.98;;;;;;;-0.68;100.00;100813.66;21005576;28;20033;-83
2022/01/07 01:14:06;;;;;;;32.85;15.02;;;;;;;-0.64;100.00;100814.66;20987740;28;20113;-83
2022/01/07 01:24:07;;;;;;;27.50;13.00;;;;;;;-0.52;100.00;100825.41;21010061;28;20460;-84
2022/01/07 01:34:09;;;;;;;26.90;13.30;;;;;;;-0.49;100.00;100822.91;20937102;28;20123;-84
2022/01/07 01:44:11;;;;;;;26.25;12.77;;;;;;;-0.44;100.00;100810.22;20926462;28;20041;-84
2022/01/07 01:54:13;;;;;;;29.80;13.60;;;;;;;-0.33;100.00;100804.63;20985383;28;20044;-84
2022/01/07 02:04:15;;;;;;;30.13;15.30;;;;;;;-0.29;100.00;100803.94;20957417;28;20037;-84
2022/01/07 02:14:16;;;;;;;27.33;13.65;;;;;;;-0.31;100.00;100800.41;20949722;28;20813;-84
2022/01/07 02:24:18;;;;;;;28.45;12.38;;;;;;;-0.25;100.00;100794.59;20975801;28;20444;-84
2022/01/07 02:34:20;;;;;;;25.48;12.52;;;;;;;-0.27;100.00;100778.22;20941955;28;20069;-84
2022/01/07 02:44:22;;;;;;;23.50;11.27;;;;;;;-0.23;100.00;100766.34;20956584;28;20506;-84
2022/01/07 02:54:23;;;;;;;22.30;10.05;;;;;;;-0.23;100.00;100753.50;20949777;28;20049;-85
2022/01/07 03:04:27;;;;;;;25.95;10.88;;;;;;;-0.17;100.00;100740.81;20964476;28;20049;-84
2022/01/07 03:14:29;;;;;;;25.93;9.93;;;;;;;-0.14;100.00;100730.63;20907968;22;20202;-68
2022/01/07 03:24:30;;;;;;;21.45;9.40;;;;;;;-0.13;100.00;100750.41;20877075;23;20051;-75
2022/01/07 03:34:32;;;;;;;24.73;9.00;;;;;;;-0.07;100.00;100748.00;20950621;28;20098;-74
2022/01/07 03:44:34;;;;;;;17.85;8.70;;;;;;;-0.06;100.00;100740.34;20954101;28;20111;-72
2022/01/07 03:54:35;;;;;;;23.38;8.95;;;;;;;-0.08;100.00;100728.25;20955422;28;20460;-73
2022/01/07 04:04:36;;;;;;;27.38;11.55;;;;;;;0.00;100.00;100719.09;20954127;28;20041;-70
2022/01/07 04:14:38;;;;;;;27.30;12.77;;;;;;;0.05;100.00;100711.47;20951584;28;20053;-72
2022/01/07 04:24:39;;;;;;;22.85;12.73;;;;;;;0.13;100.00;100705.75;20953238;28;20074;-72
2022/01/07 04:34:41;;;;;;;25.90;12.55;;;;;;;0.23;100.00;100723.22;20949708;28;20053;-71
2022/01/07 04:44:42;;;;;;;27.42;12.82;;;;;;;0.16;100.00;100717.88;20950312;28;20060;-70
2022/01/07 04:54:44;;;;;;;26.80;12.82;;;;;;;0.29;100.00;100712.28;20951160;28;20052;-69
2022/01/07 05:04:47;;;;;;;28.15;13.80;;;;;;;0.37;100.00;100702.19;20947744;28;20052;-69
2022/01/07 05:14:48;;;;;;;30.77;14.20;;;;;;;0.40;100.00;100700.59;20949738;28;20044;-69
2022/01/07 05:24:50;;;;;;;25.98;12.77;;;;;;;0.48;100.00;100682.78;20947292;28;20061;-69
2022/01/07 05:34:51;;;;;;;31.90;14.43;;;;;;;0.44;100.00;100680.97;20945797;28;20560;-69
2022/01/07 05:44:55;;;;;;;31.90;15.10;;;;;;;0.47;100.00;100673.28;20948140;28;20117;-69
2022/01/07 05:54:56;;;;;;;32.15;14.98;;;;;;;0.52;100.00;100670.03;20943244;28;20090;-70
2022/01/07 06:04:58;;;;;;;29.00;14.38;;;;;;;0.54;100.00;100657.22;20945809;28;20052;-71
2022/01/07 06:14:59;;;;;;;29.25;13.95;;;;;;;0.57;100.00;100646.09;20942020;28;20126;-72
2022/01/07 06:25:02;;;;;;;29.75;14.52;;;;;;;0.54;100.00;100646.03;20944749;28;20056;-72
2022/01/07 06:35:05;;;;;;;30.63;14.98;;;;;;;0.44;100.00;100650.03;20939939;28;20399;-72
2022/01/07 06:45:07;;;;;;;29.25;14.43;;;;;;;0.41;100.00;100647.38;20942648;28;20056;-72
2022/01/07 06:55:09;;;;;;;31.65;15.10;;;;;;;0.59;100.00;100629.00;20943063;28;20059;-71
2022/01/07 07:05:10;;;;;;;33.15;14.82;;;;;;;0.72;100.00;100621.66;20958653;28;20506;-72
2022/01/07 07:15:12;;;;;;;30.27;13.57;;;;;;;0.83;100.00;100613.34;20961924;28;20425;-72
2022/01/07 07:25:13;;;;;;;26.13;12.93;;;;;;;0.94;100.00;100617.94;20970492;28;20107;-72
2022/01/07 07:45:17;;;;;;;23.58;10.90;;;;;;;1.06;100.00;100606.22;20954852;28;20059;-73
2022/01/07 07:55:18;;;;;;;21.05;10.65;;;;;;;1.17;100.00;100595.31;20952632;28;20420;-73
2022/01/07 08:05:20;;;;;;;22.40;10.23;;;;;;;1.31;97.97;100577.63;20956641;28;20052;-73
2022/01/07 08:25:42;;;;;;;19.42;8.55;;;;;;;1.55;96.33;100561.84;20966454;28;20485;-74
2022/01/07 08:35:43;;;;;;;17.95;7.95;;;;;;;1.61;94.54;100564.56;20943924;28;20087;-74
2022/01/07 08:45:45;;;;;;;18.85;7.88;;;;;;;1.74;93.00;100545.09;20947170;28;20102;-73
2022/01/07 08:55:47;;;;;;;24.20;10.18;;;;;;;1.85;92.18;100555.63;20943203;28;20465;-73
2022/01/07 09:05:49;;;;;;;28.33;15.07;;;;;;;2.02;90.56;100551.72;20942160;28;20105;-73
2022/01/07 09:15:51;;;;;;;17.20;7.13;;;;;;;2.00;89.89;100558.53;20941822;28;20403;-73
2022/01/07 09:25:53;;;;;;;13.88;7.35;;;;;;;1.98;92.06;100562.81;20958097;22;20036;-70
2022/01/07 09:35:55;;;;;;;13.90;7.32;;;;;;;2.06;93.53;100566.44;20937209;28;20413;-70
2022/01/07 09:45:56;;;;;;;15.52;8.73;;;;;;;2.00;96.09;100562.00;20938652;28;20057;-68
2022/01/07 09:55:58;;;;;;;14.52;8.40;;;;;;;1.95;99.43;100547.25;20936705;28;20068;-68
2022/01/07 10:06:00;;;;;;;21.30;8.95;;;;;;;1.96;100.00;100548.97;20934358;28;20053;-69
2022/01/07 10:16:17;;;;;;;17.38;8.50;;;;;;;2.02;100.00;100529.34;20964715;28;20047;-68
2022/01/07 10:26:25;;;;;;;18.23;9.02;;;;;;;2.22;99.50;100527.16;20961889;28;20048;-68
2022/01/07 10:36:29;;;;;;;18.45;8.95;;;;;;;2.30;99.67;100525.63;20931169;28;20067;-68
2022/01/07 10:46:36;;;;;;;22.20;9.73;;;;;;;2.44;99.46;100512.06;20933174;28;20109;-69
2022/01/07 10:56:41;;;;;;;16.05;8.55;;;;;;;2.37;99.84;100499.88;20935301;28;20405;-66
2022/01/07 11:06:44;;;;;;;15.38;7.45;;;;;;;2.57;96.71;100495.94;20931735;28;20103;-70
2022/01/07 11:16:46;;;;;;;17.00;7.43;;;;;;;2.63;98.54;100488.28;20934833;28;20064;-71
2022/01/07 11:26:59;;;;;;;19.48;8.73;;;;;;;2.72;96.18;100480.69;20930817;28;20049;-70
2022/01/07 11:37:00;;;;;;;17.55;8.82;;;;;;;2.58;98.27;100479.59;20931061;28;20049;-70
2022/01/07 11:47:24;;;;;;;16.90;8.57;;;;;;;2.55;99.02;100458.88;20930694;28;20469;-67
2022/01/07 11:57:45;;;;;;;18.10;9.10;;;;;;;2.67;100.00;100448.72;20946017;28;20049;-67
2022/01/07 12:07:48;;;;;;;18.80;8.90;;;;;;;2.95;99.31;100452.66;20947408;28;20428;-67
2022/01/07 12:17:50;;;;;;;15.30;7.78;;;;;;;2.86;99.44;100424.06;20949403;28;20050;-68
2022/01/07 12:27:59;;;;;;;13.50;7.40;;;;;;;2.94;99.32;100419.88;20942694;28;20057;-68
2022/01/07 12:38:13;;;;;;;15.13;7.10;;;;;;;2.95;99.68;100415.56;20941871;28;20053;-70
2022/01/07 12:48:15;;;;;;;15.90;6.95;;;;;;;2.79;99.38;100392.06;20941614;28;20053;-69
2022/01/07 12:58:26;;;;;;;14.65;6.00;;;;;;;2.72;99.24;100385.03;20963910;28;20094;-71
2022/01/07 13:08:35;;;;;;;18.33;7.57;;;;;;;2.54;100.00;100379.63;20974139;28;20060;-71
2022/01/07 13:18:42;;;;;;;13.95;6.15;;;;;;;2.39;100.00;100395.69;20941086;28;20053;-70
2022/01/07 13:28:50;;;;;;;16.65;7.13;;;;;;;2.39;100.00;100384.50;20937281;28;20049;-71
2022/01/07 13:38:59;;;;;;;13.40;5.95;;;;;;;2.20;100.00;100391.91;20938767;28;20505;-72
2022/01/07 13:49:06;;;;;;;12.60;5.82;;;;;;;2.35;100.00;100380.13;20939351;28;20481;-71
2022/01/07 13:59:09;;;;;;;13.75;7.13;;;;;;;2.48;100.00;100364.84;20935425;28;20114;-72
2022/01/07 14:09:17;;;;;;;14.27;6.90;;;;;;;2.49;100.00;100357.97;20934102;28;20048;-72
2022/01/07 14:19:19;;;;;;;14.93;5.80;;;;;;;2.52;100.00;100363.19;20936787;28;20493;-70
2022/01/07 14:29:20;;;;;;;13.13;5.20;;;;;;;2.55;100.00;100364.13;20936334;28;20101;-70
2022/01/07 14:39:25;;;;;;;14.43;6.00;;;;;;;2.63;100.00;100360.78;20936561;28;20584;-70
2022/01/07 14:49:27;;;;;;;12.60;5.43;;;;;;;2.91;99.85;100356.88;20934746;28;20102;-70
2022/01/07 14:59:28;;;;;;;11.27;5.28;;;;;;;2.79;99.18;100334.31;20935048;28;20049;-71
2022/01/07 15:09:30;;;;;;;10.52;4.50;;;;;;;2.73;98.83;100355.78;20930646;28;20057;-71
2022/01/07 15:19:32;;;;;;;13.27;4.90;;;;;;;2.73;98.37;100362.66;20934678;28;20053;-72
2022/01/07 15:29:33;;;;;;;12.98;5.13;;;;;;;2.81;98.31;100374.84;20948927;28;20048;-70
2022/01/07 15:39:35;;;;;;;12.77;4.97;;;;;;;2.83;97.68;100368.00;20949214;28;20052;-70
2022/01/07 15:49:38;;;;;;;8.98;4.70;;;;;;;2.80;97.50;100374.84;20944330;28;20045;-69
2022/01/07 15:59:40;;;;;;;12.05;6.40;;;;;;;2.99;96.90;100378.56;20944005;28;20072;-69
2022/01/07 16:09:47;;;;;;;15.60;5.90;;;;;;;2.80;100.00;100369.66;20955553;28;20497;-72
2022/01/07 16:19:49;;;;;;;10.77;4.57;;;;;;;2.62;100.00;100380.59;20944595;28;20400;-73
2022/01/07 16:29:50;;;;;;;12.57;4.70;;;;;;;2.50;100.00;100372.66;20942031;28;20527;-69
2022/01/07 16:39:52;;;;;;;11.15;4.35;;;;;;;2.28;100.00;100387.78;20940746;28;20128;-71
2022/01/07 16:49:54;;;;;;;13.25;4.90;;;;;;;2.27;100.00;100377.41;20942150;28;20045;-72
2022/01/07 17:00:04;;;;;;;10.00;4.65;;;;;;;2.39;100.00;100384.50;20939272;28;20501;-72
2022/01/07 17:10:06;;;;;;;11.80;5.30;;;;;;;2.36;100.00;100384.47;20940859;28;20082;-70
2022/01/07 17:20:09;;;;;;;11.18;5.43;;;;;;;2.28;100.00;100392.94;20938756;28;20057;-72
2022/01/07 17:30:10;;;;;;;13.98;6.13;;;;;;;2.25;100.00;100392.91;20896822;28;20515;-75
2022/01/07 17:40:12;;;;;;;13.15;6.32;;;;;;;2.26;100.00;100404.09;20932119;28;20053;-71
2022/01/07 17:50:34;;;;;;;12.43;6.47;;;;;;;2.36;100.00;100394.81;20934206;28;20084;-71
2022/01/07 18:00:35;;;;;;;13.48;7.35;;;;;;;2.29;100.00;100402.41;20916258;28;20040;-69
2022/01/07 18:10:37;;;;;;;12.93;6.75;;;;;;;2.20;100.00;100399.66;20938114;28;20103;-69
2022/01/07 18:20:39;;;;;;;13.15;7.90;;;;;;;2.33;100.00;100389.56;20935222;28;20052;-72
2022/01/07 18:30:40;;;;;;;13.32;7.43;;;;;;;2.25;100.00;100382.56;20930419;28;20426;-67
2022/01/07 18:40:42;;;;;;;12.27;7.38;;;;;;;2.25;100.00;100392.91;20941207;28;20040;-67
2022/01/07 18:50:43;;;;;;;16.13;9.18;;;;;;;2.34;100.00;100384.41;20960729;28;20040;-67
2022/01/07 19:00:47;;;;;;;17.33;7.70;;;;;;;2.43;100.00;100383.72;20959345;28;20455;-67
2022/01/07 19:11:09;;;;;;;13.23;7.97;;;;;;;2.44;100.00;100367.34;20960464;28;20498;-66
2022/01/07 19:21:10;;;;;;;12.38;7.35;;;;;;;2.52;100.00;100358.03;20956069;28;20243;-67
2022/01/07 19:31:13;;;;;;;11.30;6.68;;;;;;;2.54;100.00;100348.59;20956816;28;20143;-67
2022/01/07 19:41:15;;;;;;;9.80;5.72;;;;;;;2.63;100.00;100353.00;20960029;28;20052;-67
2022/01/07 19:51:17;;;;;;;11.15;6.40;;;;;;;2.54;100.00;100340.84;20955919;28;20109;-67
2022/01/07 20:01:18;;;;;;;10.23;4.70;;;;;;;2.56;100.00;100323.63;20952804;28;20045;-67
2022/01/07 20:11:22;;;;;;;7.47;4.22;;;;;;;2.62;100.00;100290.13;20959908;28;20068;-67
2022/01/07 20:21:23;;;;;;;8.05;3.40;;;;;;;2.58;100.00;100301.25;20970536;28;20098;-66
2022/01/07 20:31:26;;;;;;;6.38;3.35;;;;;;;2.73;100.00;100278.22;20968040;28;20052;-67
2022/01/07 20:41:27;;;;;;;6.20;3.03;;;;;;;2.76;100.00;100262.75;20963658;28;20049;-67
2022/01/07 20:51:29;;;;;;;4.43;2.50;;;;;;;2.89;100.00;100239.66;20966294;28;20110;-67
2022/01/07 21:01:30;;;;;;;9.27;3.63;;;;;;;2.98;100.00;100217.34;20963167;28;20437;-66
2022/01/07 21:11:32;;;;;;;12.27;6.70;;;;;;;2.98;100.00;100216.50;20963961;28;20102;-67
2022/01/07 21:21:33;;;;;;;6.10;2.53;;;;;;;3.01;99.52;100201.00;20963181;28;20187;-66
2022/01/07 21:31:35;;;;;;;6.80;2.00;;;;;;;3.11;98.02;100179.53;20964216;23;20037;-72
2022/01/07 21:41:38;;;;;;;4.93;2.78;;;;;;;3.06;98.01;100168.28;20959287;28;20053;-68
2022/01/07 21:51:40;;;;;;;6.60;2.50;;;;;;;3.10;97.14;100157.13;20958957;28;20464;-69
2022/01/07 22:01:41;;;;;;;7.72;3.90;;;;;;;3.07;97.93;100126.06;20944688;28;20049;-69
2022/01/07 22:11:43;;;;;;;9.80;3.65;;;;;;;2.91;98.95;100112.09;20940781;28;20045;-69
2022/01/07 22:21:47;;;;;;;17.88;6.40;;;;;;;2.77;100.00;100114.53;20943957;28;20548;-72
2022/01/07 22:31:48;;;;;;;12.03;5.20;;;;;;;2.90;100.00;100075.88;20962865;28;20049;-69
2022/01/07 22:41:50;;;;;;;16.10;7.60;;;;;;;2.93;100.00;100063.00;20959306;28;20089;-71
2022/01/07 22:51:52;;;;;;;10.25;4.45;;;;;;;2.92;100.00;100045.72;20940755;28;20044;-71
2022/01/07 23:01:53;;;;;;;11.95;5.55;;;;;;;2.85;100.00;100033.59;20938051;28;20094;-71
2022/01/07 23:11:55;;;;;;;14.57;5.28;;;;;;;2.97;100.00;100013.00;20939114;28;20056;-70
2022/01/07 23:21:57;;;;;;;8.55;4.28;;;;;;;3.10;99.94;100004.50;20942189;28;20402;-70
2022/01/07 23:31:58;;;;;;;9.68;4.45;;;;;;;3.05;100.00;99970.00;20898444;28;20170;-70
2022/01/07 23:42:00;;;;;;;7.75;4.32;;;;;;;3.10;100.00;99947.59;20924042;28;20095;-70
2022/01/07 23:52:02;;;;;;;12.60;4.93;;;;;;;3.12;100.00;99929.53;20951672;28;20059;-71
